sensor_id;sensor_type;location;lat;lon;timestamp;P1;durP1;ratioP1;P2;durP2;ratioP2
12597;SDS011;6364;53.590;9.956;2023-04-25T00:00:18;15.25;;;6.80;;
12597;SDS011;6364;53.590;9.956;2023-04-25T00:02:43;15.25;;;7.00;;
12597;SDS011;6364;53.590;9.956;2023-04-25T00:05:09;17.55;;;6.20;;
12597;SDS011;6364;53.590;9.956;2023-04-25T00:07:35;17.33;;;6.57;;
12597;SDS011;6364;53.590;9.956;2023-04-25T00:10:00;29.17;;;7.85;;
12597;SDS011;6364;53.590;9.956;2023-04-25T00:12:25;27.10;;;6.88;;
12597;SDS011;6364;53.590;9.956;2023-04-25T00:14:53;28.70;;;6.63;;
12597;SDS011;6364;53.590;9.956;2023-04-25T00:17:21;25.95;;;6.60;;
12597;SDS011;6364;53.590;9.956;2023-04-25T00:19:49;28.67;;;6.72;;
12597;SDS011;6364;53.590;9.956;2023-04-25T00:22:14;22.33;;;6.25;;
12597;SDS011;6364;53.590;9.956;2023-04-25T00:24:40;29.30;;;6.07;;
12597;SDS011;6364;53.590;9.956;2023-04-25T00:27:06;32.03;;;6.82;;
12597;SDS011;6364;53.590;9.956;2023-04-25T00:29:31;29.63;;;6.20;;
12597;SDS011;6364;53.590;9.956;2023-04-25T00:31:56;39.50;;;6.82;;
12597;SDS011;6364;53.590;9.956;2023-04-25T00:34:21;34.60;;;7.40;;
12597;SDS011;6364;53.590;9.956;2023-04-25T00:36:47;24.45;;;6.18;;
12597;SDS011;6364;53.590;9.956;2023-04-25T00:39:12;23.40;;;5.93;;
12597;SDS011;6364;53.590;9.956;2023-04-25T00:41:37;27.88;;;6.03;;
12597;SDS011;6364;53.590;9.956;2023-04-25T00:44:03;34.10;;;6.18;;
12597;SDS011;6364;53.590;9.956;2023-04-25T00:46:29;37.10;;;5.78;;
12597;SDS011;6364;53.590;9.956;2023-04-25T00:48:56;30.95;;;5.43;;
12597;SDS011;6364;53.590;9.956;2023-04-25T00:51:21;31.25;;;5.85;;
12597;SDS011;6364;53.590;9.956;2023-04-25T00:53:47;36.45;;;5.05;;
12597;SDS011;6364;53.590;9.956;2023-04-25T00:56:14;37.85;;;5.65;;
12597;SDS011;6364;53.590;9.956;2023-04-25T00:58:40;33.63;;;6.22;;
12597;SDS011;6364;53.590;9.956;2023-04-25T01:01:05;28.95;;;4.93;;
12597;SDS011;6364;53.590;9.956;2023-04-25T01:03:32;33.78;;;6.10;;
12597;SDS011;6364;53.590;9.956;2023-04-25T01:06:00;29.10;;;6.28;;
12597;SDS011;6364;53.590;9.956;2023-04-25T01:08:26;27.17;;;5.50;;
12597;SDS011;6364;53.590;9.956;2023-04-25T01:10:51;31.70;;;5.65;;
12597;SDS011;6364;53.590;9.956;2023-04-25T01:13:17;27.65;;;6.90;;
12597;SDS011;6364;53.590;9.956;2023-04-25T01:15:42;21.33;;;5.00;;
12597;SDS011;6364;53.590;9.956;2023-04-25T01:18:08;38.63;;;6.00;;
12597;SDS011;6364;53.590;9.956;2023-04-25T01:20:34;32.38;;;5.40;;
12597;SDS011;6364;53.590;9.956;2023-04-25T01:23:02;34.72;;;5.75;;
12597;SDS011;6364;53.590;9.956;2023-04-25T01:25:28;31.45;;;5.57;;
12597;SDS011;6364;53.590;9.956;2023-04-25T01:27:53;25.65;;;5.18;;
12597;SDS011;6364;53.590;9.956;2023-04-25T01:30:19;36.42;;;7.00;;
12597;SDS011;6364;53.590;9.956;2023-04-25T01:32:44;39.25;;;6.03;;
12597;SDS011;6364;53.590;9.956;2023-04-25T01:35:10;31.88;;;5.95;;
12597;SDS011;6364;53.590;9.956;2023-04-25T01:37:39;32.05;;;6.65;;
12597;SDS011;6364;53.590;9.956;2023-04-25T01:40:06;26.55;;;5.97;;
12597;SDS011;6364;53.590;9.956;2023-04-25T01:42:32;33.95;;;6.22;;
12597;SDS011;6364;53.590;9.956;2023-04-25T01:44:58;24.02;;;5.53;;
12597;SDS011;6364;53.590;9.956;2023-04-25T01:47:24;31.80;;;5.75;;
12597;SDS011;6364;53.590;9.956;2023-04-25T01:49:49;25.98;;;6.07;;
12597;SDS011;6364;53.590;9.956;2023-04-25T01:52:14;37.13;;;6.53;;
12597;SDS011;6364;53.590;9.956;2023-04-25T01:54:40;31.45;;;5.68;;
12597;SDS011;6364;53.590;9.956;2023-04-25T01:57:10;30.65;;;5.72;;
12597;SDS011;6364;53.590;9.956;2023-04-25T01:59:36;30.85;;;5.57;;
12597;SDS011;6364;53.590;9.956;2023-04-25T02:02:02;33.38;;;5.88;;
12597;SDS011;6364;53.590;9.956;2023-04-25T02:04:29;32.85;;;5.50;;
12597;SDS011;6364;53.590;9.956;2023-04-25T02:06:54;27.10;;;5.63;;
12597;SDS011;6364;53.590;9.956;2023-04-25T02:09:20;25.77;;;5.72;;
12597;SDS011;6364;53.590;9.956;2023-04-25T02:11:45;30.88;;;5.32;;
12597;SDS011;6364;53.590;9.956;2023-04-25T02:14:10;24.02;;;4.95;;
12597;SDS011;6364;53.590;9.956;2023-04-25T02:16:35;29.88;;;4.75;;
12597;SDS011;6364;53.590;9.956;2023-04-25T02:19:01;25.17;;;5.00;;
12597;SDS011;6364;53.590;9.956;2023-04-25T02:21:26;27.45;;;5.28;;
12597;SDS011;6364;53.590;9.956;2023-04-25T02:23:52;38.10;;;5.85;;
12597;SDS011;6364;53.590;9.956;2023-04-25T02:26:17;28.55;;;5.30;;
12597;SDS011;6364;53.590;9.956;2023-04-25T02:28:42;24.90;;;5.20;;
12597;SDS011;6364;53.590;9.956;2023-04-25T02:31:08;37.70;;;6.00;;
12597;SDS011;6364;53.590;9.956;2023-04-25T02:33:33;24.27;;;4.70;;
12597;SDS011;6364;53.590;9.956;2023-04-25T02:35:59;29.17;;;5.07;;
12597;SDS011;6364;53.590;9.956;2023-04-25T02:38:24;29.15;;;6.22;;
12597;SDS011;6364;53.590;9.956;2023-04-25T02:40:50;35.30;;;5.05;;
12597;SDS011;6364;53.590;9.956;2023-04-25T02:43:15;39.50;;;4.50;;
12597;SDS011;6364;53.590;9.956;2023-04-25T02:45:41;22.00;;;4.68;;
12597;SDS011;6364;53.590;9.956;2023-04-25T02:48:06;30.83;;;4.90;;
12597;SDS011;6364;53.590;9.956;2023-04-25T02:50:31;31.08;;;5.60;;
12597;SDS011;6364;53.590;9.956;2023-04-25T02:52:57;22.50;;;4.57;;
12597;SDS011;6364;53.590;9.956;2023-04-25T02:55:22;24.08;;;5.35;;
12597;SDS011;6364;53.590;9.956;2023-04-25T02:57:47;22.23;;;4.55;;
12597;SDS011;6364;53.590;9.956;2023-04-25T03:00:13;23.25;;;4.55;;
12597;SDS011;6364;53.590;9.956;2023-04-25T03:02:39;30.95;;;4.57;;
12597;SDS011;6364;53.590;9.956;2023-04-25T03:05:04;22.77;;;4.30;;
12597;SDS011;6364;53.590;9.956;2023-04-25T03:07:30;25.05;;;4.50;;
12597;SDS011;6364;53.590;9.956;2023-04-25T03:09:56;23.15;;;4.60;;
12597;SDS011;6364;53.590;9.956;2023-04-25T03:12:21;22.33;;;4.85;;
12597;SDS011;6364;53.590;9.956;2023-04-25T03:14:47;19.73;;;4.78;;
12597;SDS011;6364;53.590;9.956;2023-04-25T03:17:12;29.40;;;4.40;;
12597;SDS011;6364;53.590;9.956;2023-04-25T03:19:37;22.27;;;4.25;;
12597;SDS011;6364;53.590;9.956;2023-04-25T03:22:03;26.27;;;4.75;;
12597;SDS011;6364;53.590;9.956;2023-04-25T03:24:28;22.20;;;5.15;;
12597;SDS011;6364;53.590;9.956;2023-04-25T03:26:53;23.48;;;4.60;;
12597;SDS011;6364;53.590;9.956;2023-04-25T03:29:19;21.85;;;4.50;;
12597;SDS011;6364;53.590;9.956;2023-04-25T03:31:49;25.60;;;4.30;;
12597;SDS011;6364;53.590;9.956;2023-04-25T03:34:14;18.92;;;4.25;;
12597;SDS011;6364;53.590;9.956;2023-04-25T03:36:40;17.25;;;3.72;;
12597;SDS011;6364;53.590;9.956;2023-04-25T03:39:05;26.70;;;4.50;;
12597;SDS011;6364;53.590;9.956;2023-04-25T03:41:31;21.58;;;4.20;;
12597;SDS011;6364;53.590;9.956;2023-04-25T03:43:56;21.05;;;4.13;;
12597;SDS011;6364;53.590;9.956;2023-04-25T03:46:21;20.50;;;4.10;;
12597;SDS011;6364;53.590;9.956;2023-04-25T03:48:47;25.08;;;4.32;;
12597;SDS011;6364;53.590;9.956;2023-04-25T03:51:12;22.88;;;3.85;;
12597;SDS011;6364;53.590;9.956;2023-04-25T03:53:37;19.75;;;3.75;;
12597;SDS011;6364;53.590;9.956;2023-04-25T03:56:03;30.70;;;4.13;;
12597;SDS011;6364;53.590;9.956;2023-04-25T03:58:28;23.92;;;5.25;;
12597;SDS011;6364;53.590;9.956;2023-04-25T04:00:54;24.17;;;3.85;;
12597;SDS011;6364;53.590;9.956;2023-04-25T04:03:19;20.10;;;3.58;;
12597;SDS011;6364;53.590;9.956;2023-04-25T04:05:45;14.30;;;4.15;;
12597;SDS011;6364;53.590;9.956;2023-04-25T04:08:11;18.90;;;4.18;;
12597;SDS011;6364;53.590;9.956;2023-04-25T04:10:36;20.60;;;3.45;;
12597;SDS011;6364;53.590;9.956;2023-04-25T04:13:02;19.05;;;4.13;;
12597;SDS011;6364;53.590;9.956;2023-04-25T04:15:27;23.52;;;4.03;;
12597;SDS011;6364;53.590;9.956;2023-04-25T04:17:53;20.73;;;4.32;;
12597;SDS011;6364;53.590;9.956;2023-04-25T04:20:19;17.83;;;3.85;;
12597;SDS011;6364;53.590;9.956;2023-04-25T04:22:44;18.15;;;3.38;;
12597;SDS011;6364;53.590;9.956;2023-04-25T04:25:09;22.83;;;4.15;;
12597;SDS011;6364;53.590;9.956;2023-04-25T04:27:36;17.02;;;2.80;;
12597;SDS011;6364;53.590;9.956;2023-04-25T04:30:02;16.15;;;3.42;;
12597;SDS011;6364;53.590;9.956;2023-04-25T04:32:28;17.45;;;3.47;;
12597;SDS011;6364;53.590;9.956;2023-04-25T04:34:55;17.58;;;3.38;;
12597;SDS011;6364;53.590;9.956;2023-04-25T04:37:20;23.67;;;3.00;;
12597;SDS011;6364;53.590;9.956;2023-04-25T04:39:46;21.88;;;3.78;;
12597;SDS011;6364;53.590;9.956;2023-04-25T04:42:12;17.70;;;3.20;;
12597;SDS011;6364;53.590;9.956;2023-04-25T04:44:37;17.05;;;3.28;;
12597;SDS011;6364;53.590;9.956;2023-04-25T04:47:03;25.02;;;3.35;;
12597;SDS011;6364;53.590;9.956;2023-04-25T04:49:31;22.95;;;3.38;;
12597;SDS011;6364;53.590;9.956;2023-04-25T04:51:56;18.27;;;3.35;;
12597;SDS011;6364;53.590;9.956;2023-04-25T04:54:21;23.38;;;3.70;;
12597;SDS011;6364;53.590;9.956;2023-04-25T04:56:47;16.33;;;3.75;;
12597;SDS011;6364;53.590;9.956;2023-04-25T04:59:12;17.90;;;3.53;;
12597;SDS011;6364;53.590;9.956;2023-04-25T05:01:37;15.45;;;3.15;;
12597;SDS011;6364;53.590;9.956;2023-04-25T05:04:03;20.92;;;3.90;;
12597;SDS011;6364;53.590;9.956;2023-04-25T05:06:28;14.27;;;3.50;;
12597;SDS011;6364;53.590;9.956;2023-04-25T05:08:54;23.17;;;3.95;;
12597;SDS011;6364;53.590;9.956;2023-04-25T05:11:20;20.63;;;3.88;;
12597;SDS011;6364;53.590;9.956;2023-04-25T05:13:45;24.80;;;4.00;;
12597;SDS011;6364;53.590;9.956;2023-04-25T05:16:11;17.20;;;3.75;;
12597;SDS011;6364;53.590;9.956;2023-04-25T05:18:37;23.02;;;4.10;;
12597;SDS011;6364;53.590;9.956;2023-04-25T05:21:03;22.42;;;3.63;;
12597;SDS011;6364;53.590;9.956;2023-04-25T05:23:29;15.70;;;3.55;;
12597;SDS011;6364;53.590;9.956;2023-04-25T05:25:55;16.77;;;3.55;;
12597;SDS011;6364;53.590;9.956;2023-04-25T05:28:20;15.77;;;3.88;;
12597;SDS011;6364;53.590;9.956;2023-04-25T05:30:46;18.83;;;2.78;;
12597;SDS011;6364;53.590;9.956;2023-04-25T05:33:11;15.55;;;3.33;;
12597;SDS011;6364;53.590;9.956;2023-04-25T05:35:37;15.88;;;3.33;;
12597;SDS011;6364;53.590;9.956;2023-04-25T05:38:02;15.15;;;3.78;;
12597;SDS011;6364;53.590;9.956;2023-04-25T05:40:27;21.58;;;3.17;;
12597;SDS011;6364;53.590;9.956;2023-04-25T05:42:52;17.67;;;3.35;;
12597;SDS011;6364;53.590;9.956;2023-04-25T05:45:18;19.50;;;3.22;;
12597;SDS011;6364;53.590;9.956;2023-04-25T05:47:43;22.15;;;3.53;;
12597;SDS011;6364;53.590;9.956;2023-04-25T05:50:09;19.00;;;4.25;;
12597;SDS011;6364;53.590;9.956;2023-04-25T05:52:34;16.45;;;3.50;;
12597;SDS011;6364;53.590;9.956;2023-04-25T05:55:00;23.75;;;4.03;;
12597;SDS011;6364;53.590;9.956;2023-04-25T05:57:26;21.95;;;3.42;;
12597;SDS011;6364;53.590;9.956;2023-04-25T05:59:51;17.08;;;3.50;;
12597;SDS011;6364;53.590;9.956;2023-04-25T06:02:17;15.23;;;3.20;;
12597;SDS011;6364;53.590;9.956;2023-04-25T06:04:43;20.88;;;3.90;;
12597;SDS011;6364;53.590;9.956;2023-04-25T06:07:08;19.38;;;3.47;;
12597;SDS011;6364;53.590;9.956;2023-04-25T06:09:34;21.95;;;4.15;;
12597;SDS011;6364;53.590;9.956;2023-04-25T06:11:59;18.30;;;4.03;;
12597;SDS011;6364;53.590;9.956;2023-04-25T06:14:25;21.83;;;3.40;;
12597;SDS011;6364;53.590;9.956;2023-04-25T06:16:51;15.80;;;3.47;;
12597;SDS011;6364;53.590;9.956;2023-04-25T06:19:16;13.68;;;3.35;;
12597;SDS011;6364;53.590;9.956;2023-04-25T06:21:43;12.93;;;2.83;;
12597;SDS011;6364;53.590;9.956;2023-04-25T06:24:08;15.38;;;3.67;;
12597;SDS011;6364;53.590;9.956;2023-04-25T06:26:33;12.63;;;3.88;;
12597;SDS011;6364;53.590;9.956;2023-04-25T06:28:59;20.98;;;4.53;;
12597;SDS011;6364;53.590;9.956;2023-04-25T06:31:24;14.40;;;3.20;;
12597;SDS011;6364;53.590;9.956;2023-04-25T06:33:50;10.98;;;3.25;;
12597;SDS011;6364;53.590;9.956;2023-04-25T06:36:15;15.25;;;3.40;;
12597;SDS011;6364;53.590;9.956;2023-04-25T06:38:40;17.23;;;3.58;;
12597;SDS011;6364;53.590;9.956;2023-04-25T06:41:06;16.77;;;3.47;;
12597;SDS011;6364;53.590;9.956;2023-04-25T06:43:31;11.48;;;3.08;;
12597;SDS011;6364;53.590;9.956;2023-04-25T06:45:58;23.95;;;3.45;;
12597;SDS011;6364;53.590;9.956;2023-04-25T06:48:25;12.95;;;3.47;;
12597;SDS011;6364;53.590;9.956;2023-04-25T06:50:51;18.17;;;3.53;;
12597;SDS011;6364;53.590;9.956;2023-04-25T06:53:16;12.98;;;2.90;;
12597;SDS011;6364;53.590;9.956;2023-04-25T06:55:41;15.45;;;3.15;;
12597;SDS011;6364;53.590;9.956;2023-04-25T06:58:07;17.58;;;3.28;;
12597;SDS011;6364;53.590;9.956;2023-04-25T07:00:32;16.77;;;2.97;;
12597;SDS011;6364;53.590;9.956;2023-04-25T07:02:58;12.45;;;2.42;;
12597;SDS011;6364;53.590;9.956;2023-04-25T07:05:23;12.25;;;2.58;;
12597;SDS011;6364;53.590;9.956;2023-04-25T07:07:49;15.00;;;2.85;;
12597;SDS011;6364;53.590;9.956;2023-04-25T07:10:14;13.23;;;3.10;;
12597;SDS011;6364;53.590;9.956;2023-04-25T07:12:40;16.98;;;3.00;;
12597;SDS011;6364;53.590;9.956;2023-04-25T07:15:05;17.63;;;3.17;;
12597;SDS011;6364;53.590;9.956;2023-04-25T07:17:33;13.60;;;2.60;;
12597;SDS011;6364;53.590;9.956;2023-04-25T07:19:58;16.45;;;2.67;;
12597;SDS011;6364;53.590;9.956;2023-04-25T07:22:24;14.38;;;2.60;;
12597;SDS011;6364;53.590;9.956;2023-04-25T07:24:51;14.63;;;2.88;;
12597;SDS011;6364;53.590;9.956;2023-04-25T07:27:18;13.88;;;3.03;;
12597;SDS011;6364;53.590;9.956;2023-04-25T07:29:43;9.35;;;2.20;;
12597;SDS011;6364;53.590;9.956;2023-04-25T07:32:09;12.13;;;2.78;;
12597;SDS011;6364;53.590;9.956;2023-04-25T07:34:36;10.38;;;2.10;;
12597;SDS011;6364;53.590;9.956;2023-04-25T07:37:03;11.20;;;2.05;;
12597;SDS011;6364;53.590;9.956;2023-04-25T07:39:29;14.77;;;2.85;;
12597;SDS011;6364;53.590;9.956;2023-04-25T07:41:54;13.25;;;2.25;;
12597;SDS011;6364;53.590;9.956;2023-04-25T07:44:19;12.73;;;2.58;;
12597;SDS011;6364;53.590;9.956;2023-04-25T07:46:45;13.32;;;2.70;;
12597;SDS011;6364;53.590;9.956;2023-04-25T07:49:10;17.38;;;3.05;;
12597;SDS011;6364;53.590;9.956;2023-04-25T07:51:35;10.77;;;2.53;;
12597;SDS011;6364;53.590;9.956;2023-04-25T07:54:01;13.35;;;2.72;;
12597;SDS011;6364;53.590;9.956;2023-04-25T07:56:26;16.63;;;3.08;;
12597;SDS011;6364;53.590;9.956;2023-04-25T07:58:52;11.35;;;2.78;;
12597;SDS011;6364;53.590;9.956;2023-04-25T08:01:17;14.50;;;2.72;;
12597;SDS011;6364;53.590;9.956;2023-04-25T08:03:43;11.65;;;2.42;;
12597;SDS011;6364;53.590;9.956;2023-04-25T08:06:09;16.95;;;2.45;;
12597;SDS011;6364;53.590;9.956;2023-04-25T08:08:34;10.05;;;2.03;;
12597;SDS011;6364;53.590;9.956;2023-04-25T08:10:59;14.52;;;2.33;;
12597;SDS011;6364;53.590;9.956;2023-04-25T08:13:25;11.32;;;2.22;;
12597;SDS011;6364;53.590;9.956;2023-04-25T08:15:50;12.27;;;2.30;;
12597;SDS011;6364;53.590;9.956;2023-04-25T08:18:15;20.85;;;2.92;;
12597;SDS011;6364;53.590;9.956;2023-04-25T08:20:41;12.85;;;2.35;;
12597;SDS011;6364;53.590;9.956;2023-04-25T08:23:06;9.45;;;2.00;;
12597;SDS011;6364;53.590;9.956;2023-04-25T08:25:32;8.38;;;2.15;;
12597;SDS011;6364;53.590;9.956;2023-04-25T08:27:57;12.10;;;2.42;;
12597;SDS011;6364;53.590;9.956;2023-04-25T08:30:24;11.40;;;2.28;;
12597;SDS011;6364;53.590;9.956;2023-04-25T08:32:49;13.27;;;2.38;;
12597;SDS011;6364;53.590;9.956;2023-04-25T08:35:15;15.68;;;2.45;;
12597;SDS011;6364;53.590;9.956;2023-04-25T08:37:41;10.07;;;2.53;;
12597;SDS011;6364;53.590;9.956;2023-04-25T08:40:06;11.15;;;2.88;;
12597;SDS011;6364;53.590;9.956;2023-04-25T08:42:36;18.33;;;2.55;;
12597;SDS011;6364;53.590;9.956;2023-04-25T08:45:02;14.32;;;2.08;;
12597;SDS011;6364;53.590;9.956;2023-04-25T08:47:28;12.30;;;2.38;;
12597;SDS011;6364;53.590;9.956;2023-04-25T08:49:55;10.63;;;2.38;;
12597;SDS011;6364;53.590;9.956;2023-04-25T08:52:22;11.55;;;2.60;;
12597;SDS011;6364;53.590;9.956;2023-04-25T08:54:48;16.45;;;3.10;;
12597;SDS011;6364;53.590;9.956;2023-04-25T08:57:14;14.98;;;2.15;;
12597;SDS011;6364;53.590;9.956;2023-04-25T08:59:40;15.40;;;2.15;;
12597;SDS011;6364;53.590;9.956;2023-04-25T09:02:09;15.25;;;2.20;;
12597;SDS011;6364;53.590;9.956;2023-04-25T09:04:39;13.73;;;2.60;;
12597;SDS011;6364;53.590;9.956;2023-04-25T09:07:04;12.00;;;2.22;;
12597;SDS011;6364;53.590;9.956;2023-04-25T09:09:30;14.20;;;1.80;;
12597;SDS011;6364;53.590;9.956;2023-04-25T09:11:55;11.15;;;1.92;;
12597;SDS011;6364;53.590;9.956;2023-04-25T09:14:22;9.65;;;2.60;;
12597;SDS011;6364;53.590;9.956;2023-04-25T09:19:29;8.30;;;1.90;;
12597;SDS011;6364;53.590;9.956;2023-04-25T09:21:56;6.70;;;1.55;;
12597;SDS011;6364;53.590;9.956;2023-04-25T09:27:12;18.45;;;2.20;;
12597;SDS011;6364;53.590;9.956;2023-04-25T09:29:39;11.60;;;2.10;;
12597;SDS011;6364;53.590;9.956;2023-04-25T09:32:14;10.20;;;2.45;;
12597;SDS011;6364;53.590;9.956;2023-04-25T09:34:44;10.40;;;2.00;;
12597;SDS011;6364;53.590;9.956;2023-04-25T09:37:22;11.90;;;2.42;;
12597;SDS011;6364;53.590;9.956;2023-04-25T09:39:48;8.60;;;2.10;;
12597;SDS011;6364;53.590;9.956;2023-04-25T09:42:15;9.52;;;2.15;;
12597;SDS011;6364;53.590;9.956;2023-04-25T09:44:42;12.60;;;2.10;;
12597;SDS011;6364;53.590;9.956;2023-04-25T09:47:12;11.80;;;2.15;;
12597;SDS011;6364;53.590;9.956;2023-04-25T09:49:39;12.10;;;3.05;;
12597;SDS011;6364;53.590;9.956;2023-04-25T09:52:06;13.98;;;2.35;;
12597;SDS011;6364;53.590;9.956;2023-04-25T09:54:31;11.35;;;2.20;;
12597;SDS011;6364;53.590;9.956;2023-04-25T09:56:56;12.23;;;2.40;;
12597;SDS011;6364;53.590;9.956;2023-04-25T09:59:23;10.27;;;2.22;;
12597;SDS011;6364;53.590;9.956;2023-04-25T10:01:49;14.25;;;2.42;;
12597;SDS011;6364;53.590;9.956;2023-04-25T10:04:22;13.43;;;2.40;;
12597;SDS011;6364;53.590;9.956;2023-04-25T10:06:49;17.48;;;2.42;;
12597;SDS011;6364;53.590;9.956;2023-04-25T10:09:17;9.43;;;1.85;;
12597;SDS011;6364;53.590;9.956;2023-04-25T10:11:45;10.73;;;2.45;;
12597;SDS011;6364;53.590;9.956;2023-04-25T10:14:13;10.40;;;2.38;;
12597;SDS011;6364;53.590;9.956;2023-04-25T10:16:39;7.35;;;2.20;;
12597;SDS011;6364;53.590;9.956;2023-04-25T10:19:05;6.35;;;1.60;;
12597;SDS011;6364;53.590;9.956;2023-04-25T10:21:31;9.43;;;1.70;;
12597;SDS011;6364;53.590;9.956;2023-04-25T10:23:56;9.75;;;1.77;;
12597;SDS011;6364;53.590;9.956;2023-04-25T10:26:22;9.05;;;2.17;;
12597;SDS011;6364;53.590;9.956;2023-04-25T10:28:58;14.02;;;2.03;;
12597;SDS011;6364;53.590;9.956;2023-04-25T10:31:25;6.10;;;1.67;;
12597;SDS011;6364;53.590;9.956;2023-04-25T10:33:51;8.80;;;1.92;;
12597;SDS011;6364;53.590;9.956;2023-04-25T10:36:21;9.93;;;2.10;;
12597;SDS011;6364;53.590;9.956;2023-04-25T10:38:47;10.07;;;2.42;;
12597;SDS011;6364;53.590;9.956;2023-04-25T10:41:17;5.28;;;1.58;;
12597;SDS011;6364;53.590;9.956;2023-04-25T10:43:44;9.40;;;2.00;;
12597;SDS011;6364;53.590;9.956;2023-04-25T10:48:45;12.15;;;1.98;;
12597;SDS011;6364;53.590;9.956;2023-04-25T10:51:20;12.38;;;2.50;;
12597;SDS011;6364;53.590;9.956;2023-04-25T10:53:46;7.65;;;1.92;;
12597;SDS011;6364;53.590;9.956;2023-04-25T10:56:30;11.10;;;2.00;;
12597;SDS011;6364;53.590;9.956;2023-04-25T10:59:06;10.10;;;2.33;;
12597;SDS011;6364;53.590;9.956;2023-04-25T11:01:40;14.45;;;2.33;;
12597;SDS011;6364;53.590;9.956;2023-04-25T11:04:19;9.90;;;2.33;;
12597;SDS011;6364;53.590;9.956;2023-04-25T11:09:40;10.40;;;1.92;;
12597;SDS011;6364;53.590;9.956;2023-04-25T11:12:07;8.55;;;1.85;;
12597;SDS011;6364;53.590;9.956;2023-04-25T11:14:33;10.23;;;1.45;;
12597;SDS011;6364;53.590;9.956;2023-04-25T11:16:59;8.55;;;1.70;;
12597;SDS011;6364;53.590;9.956;2023-04-25T11:19:26;7.25;;;1.80;;
12597;SDS011;6364;53.590;9.956;2023-04-25T11:21:58;8.65;;;1.60;;
12597;SDS011;6364;53.590;9.956;2023-04-25T11:24:34;10.65;;;1.80;;
12597;SDS011;6364;53.590;9.956;2023-04-25T11:27:00;10.57;;;2.13;;
12597;SDS011;6364;53.590;9.956;2023-04-25T11:29:30;11.38;;;2.05;;
12597;SDS011;6364;53.590;9.956;2023-04-25T11:31:56;13.32;;;1.63;;
12597;SDS011;6364;53.590;9.956;2023-04-25T11:34:22;8.02;;;1.65;;
12597;SDS011;6364;53.590;9.956;2023-04-25T11:36:49;12.88;;;2.03;;
12597;SDS011;6364;53.590;9.956;2023-04-25T11:39:15;10.25;;;1.83;;
12597;SDS011;6364;53.590;9.956;2023-04-25T11:41:41;5.13;;;1.60;;
12597;SDS011;6364;53.590;9.956;2023-04-25T11:44:07;4.65;;;1.40;;
12597;SDS011;6364;53.590;9.956;2023-04-25T11:46:35;9.20;;;1.67;;
12597;SDS011;6364;53.590;9.956;2023-04-25T11:49:00;9.73;;;2.08;;
12597;SDS011;6364;53.590;9.956;2023-04-25T11:51:26;9.13;;;1.88;;
12597;SDS011;6364;53.590;9.956;2023-04-25T11:53:52;9.80;;;1.75;;
12597;SDS011;6364;53.590;9.956;2023-04-25T11:56:17;8.02;;;2.08;;
12597;SDS011;6364;53.590;9.956;2023-04-25T11:58:59;7.97;;;1.55;;
12597;SDS011;6364;53.590;9.956;2023-04-25T12:01:31;6.13;;;1.60;;
12597;SDS011;6364;53.590;9.956;2023-04-25T12:03:58;10.40;;;1.50;;
12597;SDS011;6364;53.590;9.956;2023-04-25T12:06:27;7.88;;;1.63;;
12597;SDS011;6364;53.590;9.956;2023-04-25T12:09:02;5.72;;;1.23;;
12597;SDS011;6364;53.590;9.956;2023-04-25T12:11:32;5.45;;;1.02;;
12597;SDS011;6364;53.590;9.956;2023-04-25T12:14:03;5.97;;;1.48;;
12597;SDS011;6364;53.590;9.956;2023-04-25T12:16:29;3.60;;;1.20;;
12597;SDS011;6364;53.590;9.956;2023-04-25T12:18:56;5.28;;;1.08;;
12597;SDS011;6364;53.590;9.956;2023-04-25T12:21:27;10.32;;;1.38;;
12597;SDS011;6364;53.590;9.956;2023-04-25T12:23:53;6.88;;;1.50;;
12597;SDS011;6364;53.590;9.956;2023-04-25T12:26:19;4.75;;;1.30;;
12597;SDS011;6364;53.590;9.956;2023-04-25T12:28:45;4.25;;;1.17;;
12597;SDS011;6364;53.590;9.956;2023-04-25T12:31:12;5.05;;;1.42;;
12597;SDS011;6364;53.590;9.956;2023-04-25T12:33:39;4.57;;;1.35;;
12597;SDS011;6364;53.590;9.956;2023-04-25T12:36:06;8.27;;;1.48;;
12597;SDS011;6364;53.590;9.956;2023-04-25T12:38:40;7.50;;;1.33;;
12597;SDS011;6364;53.590;9.956;2023-04-25T12:41:06;6.63;;;1.92;;
12597;SDS011;6364;53.590;9.956;2023-04-25T12:43:32;6.72;;;1.48;;
12597;SDS011;6364;53.590;9.956;2023-04-25T12:45:57;7.00;;;1.40;;
12597;SDS011;6364;53.590;9.956;2023-04-25T12:48:23;3.20;;;1.25;;
12597;SDS011;6364;53.590;9.956;2023-04-25T12:50:49;7.70;;;1.63;;
12597;SDS011;6364;53.590;9.956;2023-04-25T12:53:16;10.60;;;1.70;;
12597;SDS011;6364;53.590;9.956;2023-04-25T12:55:41;5.15;;;2.05;;
12597;SDS011;6364;53.590;9.956;2023-04-25T12:58:07;5.88;;;1.20;;
12597;SDS011;6364;53.590;9.956;2023-04-25T13:00:32;8.38;;;1.52;;
12597;SDS011;6364;53.590;9.956;2023-04-25T13:02:58;11.80;;;1.80;;
12597;SDS011;6364;53.590;9.956;2023-04-25T13:05:23;10.15;;;2.40;;
12597;SDS011;6364;53.590;9.956;2023-04-25T13:07:48;5.00;;;1.23;;
12597;SDS011;6364;53.590;9.956;2023-04-25T13:10:14;7.53;;;1.58;;
12597;SDS011;6364;53.590;9.956;2023-04-25T13:12:39;5.40;;;1.80;;
12597;SDS011;6364;53.590;9.956;2023-04-25T13:15:04;5.57;;;1.45;;
12597;SDS011;6364;53.590;9.956;2023-04-25T13:17:30;7.97;;;1.50;;
12597;SDS011;6364;53.590;9.956;2023-04-25T13:19:55;5.03;;;1.70;;
12597;SDS011;6364;53.590;9.956;2023-04-25T13:22:21;4.82;;;1.45;;
12597;SDS011;6364;53.590;9.956;2023-04-25T13:24:46;7.50;;;2.00;;
12597;SDS011;6364;53.590;9.956;2023-04-25T13:27:12;6.85;;;1.63;;
12597;SDS011;6364;53.590;9.956;2023-04-25T13:29:38;5.50;;;1.27;;
12597;SDS011;6364;53.590;9.956;2023-04-25T13:32:05;6.97;;;1.98;;
12597;SDS011;6364;53.590;9.956;2023-04-25T13:34:30;11.18;;;2.10;;
12597;SDS011;6364;53.590;9.956;2023-04-25T13:36:56;10.32;;;2.08;;
12597;SDS011;6364;53.590;9.956;2023-04-25T13:39:21;11.57;;;2.15;;
12597;SDS011;6364;53.590;9.956;2023-04-25T13:41:46;10.20;;;1.83;;
12597;SDS011;6364;53.590;9.956;2023-04-25T13:44:12;11.75;;;1.80;;
12597;SDS011;6364;53.590;9.956;2023-04-25T13:46:37;10.43;;;2.15;;
12597;SDS011;6364;53.590;9.956;2023-04-25T13:49:03;7.10;;;2.00;;
12597;SDS011;6364;53.590;9.956;2023-04-25T13:51:28;7.65;;;1.83;;
12597;SDS011;6364;53.590;9.956;2023-04-25T13:53:55;7.10;;;1.40;;
12597;SDS011;6364;53.590;9.956;2023-04-25T13:56:20;7.63;;;1.70;;
12597;SDS011;6364;53.590;9.956;2023-04-25T13:58:47;4.85;;;1.40;;
12597;SDS011;6364;53.590;9.956;2023-04-25T14:01:12;7.68;;;1.63;;
12597;SDS011;6364;53.590;9.956;2023-04-25T14:03:37;5.68;;;1.70;;
12597;SDS011;6364;53.590;9.956;2023-04-25T14:06:03;9.45;;;1.90;;
12597;SDS011;6364;53.590;9.956;2023-04-25T14:08:29;7.07;;;2.00;;
12597;SDS011;6364;53.590;9.956;2023-04-25T14:10:54;11.63;;;2.20;;
12597;SDS011;6364;53.590;9.956;2023-04-25T14:13:20;7.65;;;1.90;;
12597;SDS011;6364;53.590;9.956;2023-04-25T14:15:45;7.45;;;2.00;;
12597;SDS011;6364;53.590;9.956;2023-04-25T14:18:10;8.50;;;2.00;;
12597;SDS011;6364;53.590;9.956;2023-04-25T14:20:36;6.75;;;2.05;;
12597;SDS011;6364;53.590;9.956;2023-04-25T14:23:01;12.02;;;1.95;;
12597;SDS011;6364;53.590;9.956;2023-04-25T14:25:27;9.32;;;1.90;;
12597;SDS011;6364;53.590;9.956;2023-04-25T14:27:54;6.68;;;1.92;;
12597;SDS011;6364;53.590;9.956;2023-04-25T14:30:20;8.50;;;1.92;;
12597;SDS011;6364;53.590;9.956;2023-04-25T14:32:46;7.45;;;1.70;;
12597;SDS011;6364;53.590;9.956;2023-04-25T14:35:11;9.95;;;2.03;;
12597;SDS011;6364;53.590;9.956;2023-04-25T14:37:37;10.30;;;2.00;;
12597;SDS011;6364;53.590;9.956;2023-04-25T14:40:03;6.30;;;1.50;;
12597;SDS011;6364;53.590;9.956;2023-04-25T14:42:29;9.10;;;1.50;;
12597;SDS011;6364;53.590;9.956;2023-04-25T14:44:55;7.05;;;1.70;;
12597;SDS011;6364;53.590;9.956;2023-04-25T14:47:20;6.78;;;1.52;;
12597;SDS011;6364;53.590;9.956;2023-04-25T14:49:45;7.93;;;1.48;;
12597;SDS011;6364;53.590;9.956;2023-04-25T14:52:16;7.70;;;1.95;;
12597;SDS011;6364;53.590;9.956;2023-04-25T14:54:41;7.50;;;1.40;;